Latest Weather Observations for Jimna

IDQ60901

Issued at 6:21 am EST Thursday 11 February 2016 (issued every 10 minutes, with the page automatically refreshed every 10 minutes)

About weather observations | Map of Brisbane area stations | Latest observations for Brisbane area | Other Formats
Station Details ID: 040651 Name: JIMNA FORESTRY Lat: -26.66 Lon: 152.46 Height: 523.0 m
Data from the previous 72 hours. | See also: Recent months at Jimna
Date/Time
EST
Tmp

°C
App
Tmp
°C
Dew
Point
°C
Rel
Hum
%
Delta-T

°C
Wind Press
QNH
hPa
Press
MSL
hPa
Rain
since
9 am
mm
Dir
 
Spd
km/h
Gust
km/h
Spd
kts
Gust
kts
11/06:00am 17.9 - 15.3 85 1.6 - - - - - - - 0.0
11/05:30am 18.1 - 15.7 86 1.4 - - - - - - - 0.0
11/05:00am 17.8 - 15.8 88 1.2 - - - - - - - 0.0
11/04:30am 17.8 - 15.4 86 1.4 - - - - - - - 0.0
11/04:00am 17.9 - 15.3 85 1.6 - - - - - - - 0.0
11/03:30am 18.1 - 15.7 86 1.4 - - - - - - - 0.0
11/03:00am 17.7 - 15.5 87 1.3 - - - - - - - 0.0
11/02:30am 17.9 - 15.7 87 1.3 - - - - - - - 0.0
11/02:00am 18.1 - 15.9 87 1.3 - - - - - - - 0.0
11/01:30am 18.0 - 15.4 85 1.6 - - - - - - - 0.0
11/01:00am 18.5 - 15.4 82 1.9 - - - - - - - 0.0
11/12:30am 18.9 - 15.6 81 2.0 - - - - - - - 0.0
11/12:00am 19.3 - 16.0 81 2.0 - - - - - - - 0.0
 
Date/Time
EST
Tmp

°C
App
Tmp
°C
Dew
Point
°C
Rel
Hum
%
Delta-T

°C
Wind Press
QNH
hPa
Press
MSL
hPa
Rain
since
9 am
mm
Dir
 
Spd
km/h
Gust
km/h
Spd
kts
Gust
kts
10/11:30pm 19.5 - 16.2 81 2.0 - - - - - - - 0.0
10/11:00pm 19.6 - 16.4 82 2.0 - - - - - - - 0.0
10/10:30pm 19.0 - 15.9 82 1.9 - - - - - - - 0.0
10/10:00pm 19.2 - 15.5 79 2.2 - - - - - - - 0.0
10/09:30pm 19.7 - 16.0 79 2.3 - - - - - - - 0.0
10/09:00pm 19.9 - 16.2 79 2.3 - - - - - - - 0.0
10/08:30pm 19.9 - 16.2 79 2.3 - - - - - - - 0.0
10/08:00pm 20.0 - 15.8 77 2.6 - - - - - - - 0.0
10/07:30pm 20.4 - 15.8 75 2.8 - - - - - - - 0.0
10/07:00pm 20.9 - 16.1 74 2.9 - - - - - - - 0.0
10/06:30pm 21.5 - 16.0 71 3.4 - - - - - - - 0.0
10/06:00pm 22.3 - 16.3 69 3.7 - - - - - - - 0.0
10/05:30pm 23.3 - 16.1 64 4.5 - - - - - - - 0.0
10/05:00pm 24.2 - 16.2 61 5.0 - - - - - - - 0.0
10/04:30pm 25.2 - 16.9 60 5.2 - - - - - - - 0.0
10/04:00pm 25.6 - 15.9 55 6.0 - - - - - - - 0.0
10/03:30pm 25.7 - 14.8 51 6.7 - - - - - - - 0.0
10/03:00pm 26.2 - 15.0 50 6.9 - - - - - - - 0.0
10/02:30pm 26.1 - 14.2 48 7.2 - - - - - - - 0.0
10/02:00pm 25.7 - 15.1 52 6.5 - - - - - - - 0.0
10/01:30pm 24.9 - 14.7 53 6.2 - - - - - - - 0.0
10/01:00pm 25.4 - 16.3 57 5.7 - - - - - - - 0.0
10/12:30pm 24.1 - 14.2 54 6.0 - - - - - - - 0.0
10/12:00pm 25.0 - 15.0 53 6.1 - - - - - - - 0.0
10/11:30am 23.8 - 14.5 56 5.6 - - - - - - - 0.0
10/11:00am 24.0 - 15.2 58 5.4 - - - - - - - 0.0
10/10:30am 22.6 - 15.4 64 4.4 - - - - - - - 0.0
10/10:00am 22.4 - 15.7 66 4.1 - - - - - - - 0.0
10/09:30am 21.8 - 15.9 69 3.6 - - - - - - - 0.0
10/09:00am 21.1 - 15.0 68 3.7 - - - - - - - 1.4
10/08:30am 20.8 - 14.9 69 3.6 - - - - - - - 1.4
10/08:00am 20.3 - 14.9 71 3.2 - - - - - - - 1.4
10/07:30am 20.1 - 14.9 72 3.1 - - - - - - - 1.4
10/07:00am 18.9 - 15.0 78 2.3 - - - - - - - 1.4
10/06:30am 18.2 - 14.7 80 2.1 - - - - - - - 1.4
10/06:00am 17.9 - 14.8 82 1.8 - - - - - - - 1.4
10/05:30am 17.9 - 14.6 81 2.0 - - - - - - - 1.4
10/05:00am 17.9 - 14.8 82 1.8 - - - - - - - 1.4
10/04:30am 17.6 - 14.9 84 1.6 - - - - - - - 1.4
10/04:00am 17.3 - 14.6 84 1.6 - - - - - - - 1.4
10/03:30am 17.1 - 14.7 86 1.4 - - - - - - - 1.4
10/03:00am 16.7 - 14.3 86 1.4 - - - - - - - 1.4
10/02:30am 16.5 - 13.8 84 1.6 - - - - - - - 1.4
10/02:00am 16.8 - 13.9 83 1.7 - - - - - - - 1.4
10/01:30am 16.7 - 13.8 83 1.7 - - - - - - - 1.2
10/01:00am 17.0 - 13.9 82 1.8 - - - - - - - 1.2
10/12:30am 17.0 - 13.9 82 1.8 - - - - - - - 1.2
10/12:00am 18.7 - 12.9 69 3.3 - - - - - - - 1.2
 
Date/Time
EST
Tmp

°C
App
Tmp
°C
Dew
Point
°C
Rel
Hum
%
Delta-T

°C
Wind Press
QNH
hPa
Press
MSL
hPa
Rain
since
9 am
mm
Dir
 
Spd
km/h
Gust
km/h
Spd
kts
Gust
kts
09/11:30pm 18.4 - 12.4 68 3.4 - - - - - - - 1.2
09/11:00pm 18.6 - 12.6 68 3.4 - - - - - - - 1.0
09/10:30pm 18.2 - 13.1 72 2.9 - - - - - - - 1.0
09/10:00pm 18.6 - 13.0 70 3.2 - - - - - - - 0.8
09/09:30pm 18.9 - 12.6 67 3.6 - - - - - - - 0.8
09/09:00pm 19.1 - 13.5 70 3.3 - - - - - - - 0.6
09/08:30pm 19.7 - 13.9 69 3.4 - - - - - - - 0.2
09/08:00pm 19.8 - 14.0 69 3.4 - - - - - - - 0.0
09/07:30pm 20.2 - 14.1 68 3.6 - - - - - - - 0.0
09/07:00pm 20.7 - 13.9 65 4.0 - - - - - - - 0.0
09/06:30pm 20.9 - 13.6 63 4.3 - - - - - - - 0.0
09/06:00pm 21.6 - 13.5 60 4.8 - - - - - - - 0.0
09/05:30pm 22.2 - 14.1 60 4.8 - - - - - - - 0.0
09/05:00pm 23.1 - 14.4 58 5.2 - - - - - - - 0.0
09/04:30pm 23.9 - 14.6 56 5.6 - - - - - - - 0.0
09/04:00pm 23.8 - 14.2 55 5.8 - - - - - - - 0.0
09/03:30pm 24.3 - 13.8 52 6.3 - - - - - - - 0.0
09/03:00pm 25.8 - 16.9 58 5.6 - - - - - - - 0.0
09/02:30pm 25.0 - 15.0 53 6.1 - - - - - - - 0.0
09/02:00pm 24.8 - 14.6 53 6.2 - - - - - - - 0.0
09/01:30pm 24.8 - 15.4 56 5.8 - - - - - - - 0.0
09/01:00pm 24.6 - 15.5 57 5.6 - - - - - - - 0.0
09/12:30pm 25.2 - 17.1 60 5.1 - - - - - - - 0.0
09/12:00pm 24.2 - 14.9 56 5.7 - - - - - - - 0.0
09/11:30am 23.4 - 13.8 54 5.7 - - - - - - - 0.0
09/11:00am 23.9 - 14.6 56 5.6 - - - - - - - 0.0
09/10:30am 24.0 - 15.0 57 5.5 - - - - - - - 0.0
09/10:00am 23.4 - 15.2 60 5.0 - - - - - - - 0.0
09/09:30am 23.3 - 15.9 63 4.6 - - - - - - - 0.0
09/09:00am 21.3 - 15.2 68 3.7 - - - - - - - 0.0
09/08:30am 21.3 - 15.2 68 3.7 - - - - - - - 0.0
09/08:00am 21.1 - 15.2 69 3.6 - - - - - - - 0.0
09/07:30am 19.7 - 14.7 73 3.0 - - - - - - - 0.0
09/07:00am 19.4 - 14.4 73 3.0 - - - - - - - 0.0
09/06:30am 17.9 - 14.6 81 2.0 - - - - - - - 0.0
09/06:00am 17.0 - 14.1 83 1.7 - - - - - - - 0.0
09/05:30am 17.3 - 14.4 83 1.7 - - - - - - - 0.0
09/05:00am 17.0 - 14.5 85 1.5 - - - - - - - 0.0
09/04:30am 16.7 - 14.3 86 1.4 - - - - - - - 0.0
09/04:00am 16.9 - 14.4 85 1.5 - - - - - - - 0.0
09/03:30am 17.4 - 14.5 83 1.7 - - - - - - - 0.0
09/03:00am 17.8 - 14.5 81 1.9 - - - - - - - 0.0
09/02:30am 18.0 - 14.5 80 2.1 - - - - - - - 0.0
09/02:00am 17.9 - 14.6 81 2.0 - - - - - - - 0.0
09/01:30am 18.0 - 14.5 80 2.1 - - - - - - - 0.0
09/01:00am 18.3 - 14.6 79 2.2 - - - - - - - 0.0
09/12:30am 18.5 - 14.8 79 2.2 - - - - - - - 0.0
09/12:00am 18.5 - 14.6 78 2.3 - - - - - - - 0.0
 
Date/Time
EST
Tmp

°C
App
Tmp
°C
Dew
Point
°C
Rel
Hum
%
Delta-T

°C
Wind Press
QNH
hPa
Press
MSL
hPa
Rain
since
9 am
mm
Dir
 
Spd
km/h
Gust
km/h
Spd
kts
Gust
kts
08/11:30pm 19.0 - 15.1 78 2.3 - - - - - - - 0.0
08/11:00pm 19.2 - 15.7 80 2.1 - - - - - - - 0.0
08/10:30pm 19.4 - 15.9 80 2.1 - - - - - - - 0.0
08/10:00pm 19.5 - 16.0 80 2.1 - - - - - - - 0.0
08/09:30pm 19.5 - 16.2 81 2.0 - - - - - - - 0.0
08/09:00pm 19.5 - 16.0 80 2.1 - - - - - - - 0.0
08/08:30pm 19.7 - 15.8 78 2.4 - - - - - - - 0.0
08/08:00pm 20.0 - 15.6 76 2.7 - - - - - - - 0.0
08/07:30pm 20.5 - 15.5 73 3.0 - - - - - - - 0.0
08/07:00pm 21.0 - 15.3 70 3.5 - - - - - - - 0.0
08/06:30pm 21.7 - 15.1 66 4.0 - - - - - - - 0.0
08/06:00pm 22.6 - 15.9 66 4.1 - - - - - - - 0.0
08/05:30pm 22.9 - 15.5 63 4.5 - - - - - - - 0.0
08/05:00pm 23.7 - 15.7 61 4.9 - - - - - - - 0.0
08/04:30pm 24.6 - 16.1 59 5.3 - - - - - - - 0.0
08/04:00pm 24.8 - 16.0 58 5.5 - - - - - - - 0.0
08/03:30pm 25.4 - 14.5 51 6.6 - - - - - - - 0.0
08/03:00pm 25.9 - 14.4 49 7.0 - - - - - - - 0.0
08/02:30pm 25.9 - 15.6 53 6.4 - - - - - - - 0.0
08/02:00pm 25.1 - 13.9 49 6.8 - - - - - - - 0.0
08/01:30pm 25.1 - 12.0 44 7.7 - - - - - - - 0.0
08/01:00pm 25.1 - 13.6 49 6.9 - - - - - - - 0.0
08/12:30pm 25.2 - 14.0 49 6.8 - - - - - - - 0.0
08/12:00pm 24.7 - 13.9 51 6.5 - - - - - - - 0.0
08/11:30am 24.8 - 13.7 50 6.7 - - - - - - - 0.0
08/11:00am 23.8 - 15.3 59 5.2 - - - - - - - 0.0
08/10:30am 23.5 - 15.0 59 5.2 - - - - - - - 0.0
08/10:00am 22.7 - 14.0 58 5.2 - - - - - - - 0.0
08/09:30am 23.2 - 15.5 62 4.7 - - - - - - - 0.0
08/09:00am 22.2 - 14.1 60 4.8 - - - - - - - 0.0
08/08:30am 21.1 - 14.3 65 4.1 - - - - - - - 0.0
08/08:00am 20.2 - 14.6 70 3.3 - - - - - - - 0.0
08/07:30am 19.6 - 15.0 75 2.8 - - - - - - - 0.0
08/07:00am 18.2 - 14.5 79 2.2 - - - - - - - 0.0
08/06:30am 17.8 - 14.5 81 1.9 - - - - - - - 0.0

Latest Capital City Observations: Canberra | Sydney | Melbourne | Brisbane | Adelaide | Perth | Hobart | Darwin

Other Formats:

Comma delimited format used in spreadsheet applications
http://www.bom.gov.au/fwo/IDQ60901/IDQ60901.94557.axf

JavaScript Object Notation format (JSON) in row-major order
http://www.bom.gov.au/fwo/IDQ60901/IDQ60901.94557.json